createdAt,value
2018-08-11T00:00:30.848Z,94075.04
2018-08-11T00:02:59.032Z,94076.74
2018-08-11T00:05:27.185Z,94076.49
2018-08-11T00:07:55.385Z,94077.14
2018-08-11T00:10:23.646Z,94081.42
2018-08-11T00:12:51.795Z,94080.55
2018-08-11T00:15:20.589Z,94077.05
2018-08-11T00:17:48.688Z,94077.42
2018-08-11T00:20:22.432Z,94086.26
2018-08-11T00:22:50.679Z,94081.48
2018-08-11T00:25:18.851Z,94083.66
2018-08-11T00:27:46.927Z,94086.98
2018-08-11T00:30:16.536Z,94080.52
2018-08-11T00:32:44.710Z,94082.80
2018-08-11T00:35:13.858Z,94076.09
2018-08-11T00:37:42.451Z,94072.89
2018-08-11T00:40:16.648Z,94077.30
2018-08-11T00:42:45.966Z,94068.45
2018-08-11T00:45:15.083Z,94063.72
2018-08-11T00:47:43.424Z,94067.03
2018-08-11T00:50:14.053Z,94063.18
2018-08-11T00:52:42.367Z,94068.53
2018-08-11T00:55:12.175Z,94062.30
2018-08-11T00:57:40.397Z,94060.72
2018-08-11T01:00:11.125Z,94061.96
2018-08-11T01:02:39.746Z,94058.55
2018-08-11T01:05:09.984Z,94057.27
2018-08-11T01:07:38.346Z,94055.72
2018-08-11T01:10:07.121Z,94058.34
2018-08-11T01:12:35.260Z,94051.86
2018-08-11T01:15:03.948Z,94054.41
2018-08-11T01:17:32.043Z,94046.39
2018-08-11T01:20:00.191Z,94040.50
2018-08-11T01:22:28.308Z,94051.01
2018-08-11T01:24:56.415Z,94047.72
2018-08-11T01:27:24.523Z,94044.21
2018-08-11T01:29:52.927Z,94053.97
2018-08-11T01:32:20.957Z,94052.04
2018-08-11T01:34:49.095Z,94052.92
2018-08-11T01:37:17.324Z,94048.75
2018-08-11T01:39:45.503Z,94045.13
2018-08-11T01:42:13.706Z,94039.55
2018-08-11T01:44:41.954Z,94042.04
2018-08-11T01:47:10.125Z,94046.01
2018-08-11T01:49:38.234Z,94041.23
2018-08-11T01:52:06.352Z,94043.07
2018-08-11T01:54:34.705Z,94037.73
2018-08-11T01:57:02.873Z,94042.58
2018-08-11T01:59:30.919Z,94042.91
2018-08-11T02:01:59.007Z,94038.95
2018-08-11T02:04:27.088Z,94032.03
2018-08-11T02:06:55.145Z,94031.53
2018-08-11T02:09:23.225Z,94031.20
2018-08-11T02:11:51.456Z,94033.42
2018-08-11T02:14:19.562Z,94035.41
2018-08-11T02:16:47.591Z,94032.17
2018-08-11T02:19:15.670Z,94042.09
2018-08-11T02:21:43.796Z,94038.28
2018-08-11T02:24:11.911Z,94038.42
2018-08-11T02:26:40.057Z,94042.30
2018-08-11T02:29:08.194Z,94044.98
2018-08-11T02:31:36.249Z,94043.16
2018-08-11T02:34:04.297Z,94042.09
2018-08-11T02:36:32.345Z,94043.53
2018-08-11T02:39:00.500Z,94038.41
2018-08-11T02:41:28.643Z,94039.81
2018-08-11T02:43:56.811Z,94040.18
2018-08-11T02:46:24.947Z,94037.41
2018-08-11T02:48:53.049Z,94036.94
2018-08-11T02:51:21.139Z,94037.12
2018-08-11T02:53:49.282Z,94040.47
2018-08-11T02:56:17.378Z,94039.48
2018-08-11T02:58:45.501Z,94043.03
2018-08-11T03:01:13.693Z,94040.98
2018-08-11T03:03:41.807Z,94039.59
2018-08-11T03:06:09.877Z,94038.09
2018-08-11T03:08:37.919Z,94035.29
2018-08-11T03:11:06.063Z,94041.82
2018-08-11T03:13:34.062Z,94043.50
2018-08-11T03:16:02.137Z,94043.20
2018-08-11T03:18:30.460Z,94040.26
2018-08-11T03:20:58.523Z,94033.98
2018-08-11T03:23:26.833Z,94030.59
2018-08-11T03:25:54.953Z,94035.47
2018-08-11T03:28:23.080Z,94035.94
2018-08-11T03:30:51.171Z,94036.41
2018-08-11T03:33:19.422Z,94035.20
2018-08-11T03:35:47.725Z,94031.09
2018-08-11T03:38:19.283Z,94035.98
2018-08-11T03:40:47.558Z,94036.62
2018-08-11T03:43:15.934Z,94033.00
2018-08-11T03:45:44.039Z,94029.45
2018-08-11T03:48:12.097Z,94024.66
2018-08-11T03:50:40.474Z,94026.07
2018-08-11T03:53:08.874Z,94022.80
2018-08-11T03:55:37.058Z,94026.73
2018-08-11T03:58:05.386Z,94027.19
2018-08-11T04:00:33.627Z,94021.77
2018-08-11T04:03:01.841Z,94026.89
2018-08-11T04:05:30.107Z,94026.64
2018-08-11T04:07:58.406Z,94025.87
2018-08-11T04:10:26.593Z,94026.11
2018-08-11T04:12:54.803Z,94034.80
2018-08-11T04:15:22.915Z,94042.16
2018-08-11T04:17:51.051Z,94038.69
2018-08-11T04:20:19.275Z,94046.28
2018-08-11T04:22:47.655Z,94042.13
2018-08-11T04:25:15.764Z,94044.12
2018-08-11T04:27:43.990Z,94047.73
2018-08-11T04:30:12.054Z,94045.83
2018-08-11T04:32:40.577Z,94040.77
2018-08-11T04:35:08.909Z,94045.61
2018-08-11T04:37:37.104Z,94050.76
2018-08-11T04:40:05.487Z,94049.59
2018-08-11T04:42:33.631Z,94052.45
2018-08-11T04:45:01.921Z,94048.77
2018-08-11T04:47:30.051Z,94052.76
2018-08-11T04:49:58.227Z,94056.93
2018-08-11T04:52:26.337Z,94059.03
2018-08-11T04:54:54.412Z,94060.91
2018-08-11T04:57:22.472Z,94064.23
2018-08-11T04:59:50.636Z,94067.07
2018-08-11T05:02:19.040Z,94065.88
2018-08-11T05:04:47.310Z,94065.00
2018-08-11T05:07:15.596Z,94066.74
2018-08-11T05:09:43.844Z,94075.08
2018-08-11T05:12:12.155Z,94071.31
2018-08-11T05:14:40.544Z,94067.02
2018-08-11T05:17:09.085Z,94072.23
2018-08-11T05:19:37.365Z,94072.87
2018-08-11T05:22:05.640Z,94065.54
2018-08-11T05:24:34.133Z,94059.75
2018-08-11T05:27:02.331Z,94059.59
2018-08-11T05:29:30.504Z,94066.53
2018-08-11T05:31:58.828Z,94067.55
2018-08-11T05:34:27.185Z,94065.92
2018-08-11T05:36:55.488Z,94061.92
2018-08-11T05:39:23.606Z,94067.72
2018-08-11T05:41:51.738Z,94061.97
2018-08-11T05:44:19.859Z,94060.14
2018-08-11T05:46:47.915Z,94070.41
2018-08-11T05:49:16.071Z,94059.56
2018-08-11T05:51:44.344Z,94062.47
2018-08-11T05:54:12.516Z,94063.66
2018-08-11T05:56:40.645Z,94063.44
2018-08-11T05:59:08.733Z,94058.45
2018-08-11T06:01:36.808Z,94057.62
2018-08-11T06:04:05.241Z,94047.28
2018-08-11T06:06:33.946Z,94047.03
2018-08-11T06:09:02.219Z,94047.05
2018-08-11T06:11:30.557Z,94052.75
2018-08-11T06:13:58.968Z,94052.84
2018-08-11T06:16:27.174Z,94044.70
2018-08-11T06:18:55.969Z,94049.98
2018-08-11T06:21:24.269Z,94052.84
2018-08-11T06:23:52.837Z,94045.30
2018-08-11T06:26:21.285Z,94051.53
2018-08-11T06:28:49.434Z,94044.98
2018-08-11T06:31:18.823Z,94043.15
2018-08-11T06:33:47.815Z,94045.19
2018-08-11T06:36:16.268Z,94044.00
2018-08-11T06:38:44.986Z,94045.53
2018-08-11T06:41:13.374Z,94042.93
2018-08-11T06:43:41.601Z,94040.97
2018-08-11T06:46:09.743Z,94049.03
2018-08-11T06:48:37.955Z,94044.00
2018-08-11T06:51:06.297Z,94037.73
2018-08-11T06:53:34.528Z,94032.09
2018-08-11T06:56:02.727Z,94031.08
2018-08-11T06:58:31.202Z,94037.02
2018-08-11T07:00:59.529Z,94031.02
2018-08-11T07:03:27.825Z,94025.13
2018-08-11T07:05:56.282Z,94022.83
2018-08-11T07:08:26.634Z,94027.56
2018-08-11T07:10:57.180Z,94025.92
2018-08-11T07:13:26.682Z,94025.70
2018-08-11T07:16:02.872Z,94030.82
2018-08-11T07:18:31.650Z,94025.09
2018-08-11T07:21:00.939Z,94027.14
2018-08-11T07:23:30.219Z,94029.91
2018-08-11T07:25:58.654Z,94021.34
2018-08-11T07:28:26.972Z,94020.17
2018-08-11T07:30:56.783Z,94016.80
2018-08-11T07:33:26.018Z,94021.88
2018-08-11T07:35:56.708Z,94020.97
2018-08-11T07:38:26.999Z,94014.34
2018-08-11T07:40:56.630Z,94014.73
2018-08-11T07:43:25.416Z,94015.06
2018-08-11T07:45:54.883Z,94015.82
2018-08-11T07:48:24.268Z,94014.52
2018-08-11T07:50:52.647Z,94011.25
2018-08-11T07:53:21.320Z,94007.29
2018-08-11T07:55:50.257Z,94009.56
2018-08-11T07:58:19.577Z,94012.64
2018-08-11T08:00:50.873Z,94011.11
2018-08-11T08:03:20.663Z,94002.93
2018-08-11T08:05:49.021Z,93995.62
2018-08-11T08:08:17.462Z,94002.17
2018-08-11T08:10:51.719Z,94002.09
2018-08-11T08:13:20.397Z,93992.16
2018-08-11T08:15:49.744Z,93995.00
2018-08-11T08:18:20.967Z,93997.69
2018-08-11T08:20:53.413Z,93997.31
2018-08-11T08:23:22.186Z,93995.16
2018-08-11T08:25:51.753Z,93989.34
2018-08-11T08:28:20.553Z,93977.80
2018-08-11T08:30:48.989Z,93979.44
2018-08-11T08:33:17.490Z,93988.51
2018-08-11T08:35:46.010Z,93988.61
2018-08-11T08:38:14.488Z,93983.45
2018-08-11T08:40:43.170Z,93976.91
2018-08-11T08:43:11.452Z,93978.72
2018-08-11T08:45:39.785Z,93976.93
2018-08-11T08:48:08.117Z,93977.30
2018-08-11T08:50:36.939Z,93961.55
2018-08-11T08:53:05.400Z,93967.15
2018-08-11T08:55:33.949Z,93961.84
2018-08-11T08:58:02.037Z,93966.34
2018-08-11T09:00:30.390Z,93961.62
2018-08-11T09:02:58.965Z,93957.80
2018-08-11T09:05:27.299Z,93954.55
2018-08-11T09:07:55.534Z,93954.00
2018-08-11T09:10:23.713Z,93946.35
2018-08-11T09:12:51.956Z,93948.47
2018-08-11T09:15:20.441Z,93943.11
2018-08-11T09:17:48.820Z,93938.73
2018-08-11T09:20:17.279Z,93932.93
2018-08-11T09:22:45.551Z,93933.20
2018-08-11T09:25:13.662Z,93930.41
2018-08-11T09:27:41.818Z,93922.37
2018-08-11T09:30:10.046Z,93932.72
2018-08-11T09:32:38.177Z,93929.83
2018-08-11T09:35:06.892Z,93924.44
2018-08-11T09:37:35.069Z,93920.88
2018-08-11T09:40:03.738Z,93920.14
2018-08-11T09:42:32.707Z,93927.11
2018-08-11T09:45:01.032Z,93922.22
2018-08-11T09:47:29.241Z,93921.05
2018-08-11T09:49:58.008Z,93917.88
2018-08-11T09:52:26.541Z,93915.00
2018-08-11T09:54:55.305Z,93908.83
2018-08-11T09:57:23.390Z,93906.45
2018-08-11T09:59:52.001Z,93908.46
2018-08-11T10:02:21.463Z,93905.70
2018-08-11T10:04:50.601Z,93904.37
2018-08-11T10:07:19.692Z,93903.06
2018-08-11T10:09:49.017Z,93903.09
2018-08-11T10:12:18.864Z,93902.36
2018-08-11T10:14:47.919Z,93899.38
2018-08-11T10:17:17.288Z,93892.80
2018-08-11T10:19:45.983Z,93887.45
2018-08-11T10:22:15.590Z,93883.09
2018-08-11T10:24:46.082Z,93878.14
2018-08-11T10:27:15.656Z,93891.73
2018-08-11T10:29:44.496Z,93883.02
2018-08-11T10:32:13.051Z,93875.83
2018-08-11T10:34:41.507Z,93876.39
2018-08-11T10:37:10.203Z,93877.98
2018-08-11T10:39:39.905Z,93876.30
2018-08-11T10:42:11.233Z,93869.57
2018-08-11T10:44:40.123Z,93868.39
2018-08-11T10:47:09.962Z,93872.36
2018-08-11T10:49:38.411Z,93865.13
2018-08-11T10:52:07.536Z,93858.63
2018-08-11T10:54:41.088Z,93859.65
2018-08-11T10:57:11.130Z,93850.33
2018-08-11T10:59:43.888Z,93852.62
2018-08-11T11:02:14.260Z,93845.98
2018-08-11T11:04:43.080Z,93848.30
2018-08-11T11:07:12.152Z,93843.41
2018-08-11T11:09:41.619Z,93844.66
2018-08-11T11:12:10.505Z,93842.98
2018-08-11T11:14:39.444Z,93843.72
2018-08-11T11:17:08.049Z,93831.90
2018-08-11T11:19:36.726Z,93830.88
2018-08-11T11:22:06.043Z,93835.31
2018-08-11T11:24:35.447Z,93833.37
2018-08-11T11:27:04.395Z,93821.42
2018-08-11T11:29:34.157Z,93817.81
2018-08-11T11:32:03.318Z,93826.45
2018-08-11T11:34:32.193Z,93824.45
2018-08-11T11:37:01.748Z,93819.26
2018-08-11T11:39:30.860Z,93823.11
2018-08-11T11:41:59.665Z,93820.27
2018-08-11T11:44:28.225Z,93818.59
2018-08-11T11:46:56.598Z,93815.06
2018-08-11T11:49:25.291Z,93810.80
2018-08-11T11:51:54.033Z,93816.00
2018-08-11T11:54:22.655Z,93808.38
2018-08-11T11:56:51.257Z,93807.55
2018-08-11T11:59:19.562Z,93801.39
2018-08-11T12:01:48.868Z,93804.63
2018-08-11T12:04:17.296Z,93798.75
2018-08-11T12:06:45.822Z,93789.77
2018-08-11T12:09:14.088Z,93793.70
2018-08-11T12:11:42.410Z,93790.65
2018-08-11T12:14:11.080Z,93788.20
2018-08-11T12:16:39.861Z,93790.11
2018-08-11T12:19:08.145Z,93790.34
2018-08-11T12:21:36.448Z,93788.66
2018-08-11T12:24:05.268Z,93785.16
2018-08-11T12:26:33.711Z,93776.19
2018-08-11T12:29:02.221Z,93778.77
2018-08-11T12:31:31.684Z,93772.58
2018-08-11T12:34:00.104Z,93769.58
2018-08-11T12:36:28.808Z,93767.52
2018-08-11T12:38:58.341Z,93759.59
2018-08-11T12:41:27.060Z,93756.34
2018-08-11T12:43:55.872Z,93760.79
2018-08-11T12:46:24.521Z,93750.56
2018-08-11T12:48:53.453Z,93750.35
2018-08-11T12:51:22.391Z,93750.19
2018-08-11T12:53:50.959Z,93749.05
2018-08-11T12:56:20.591Z,93749.86
2018-08-11T12:58:49.085Z,93746.77
2018-08-11T13:01:17.802Z,93748.81
2018-08-11T13:03:46.388Z,93748.14
2018-08-11T13:06:15.063Z,93743.73
2018-08-11T13:08:44.045Z,93742.91
2018-08-11T13:11:12.870Z,93740.36
2018-08-11T13:13:41.805Z,93740.58
2018-08-11T13:16:11.301Z,93740.16
2018-08-11T13:18:42.959Z,93736.13
2018-08-11T13:21:14.467Z,93738.81
2018-08-11T13:23:45.276Z,93739.39
2018-08-11T13:26:16.339Z,93732.17
2018-08-11T13:28:46.802Z,93733.27
2018-08-11T13:31:16.358Z,93731.53
2018-08-11T13:33:45.831Z,93724.23
2018-08-11T13:36:15.296Z,93727.51
2018-08-11T13:38:47.843Z,93727.80
2018-08-11T13:41:16.226Z,93724.34
2018-08-11T13:43:44.601Z,93725.63
2018-08-11T13:46:12.884Z,93716.23
2018-08-11T13:48:41.180Z,93724.48
2018-08-11T13:51:09.612Z,93719.38
2018-08-11T13:53:38.129Z,93712.12
2018-08-11T13:56:06.462Z,93717.71
2018-08-11T13:58:34.935Z,93719.70
2018-08-11T14:01:03.736Z,93712.46
2018-08-11T14:03:32.189Z,93718.95
2018-08-11T14:06:00.730Z,93718.78
2018-08-11T14:08:29.395Z,93721.84
2018-08-11T14:10:58.504Z,93716.55
2018-08-11T14:13:27.173Z,93712.09
2018-08-11T14:15:55.884Z,93712.57
2018-08-11T14:18:24.668Z,93710.83
2018-08-11T14:20:57.045Z,93705.87
2018-08-11T14:23:31.074Z,93711.74
2018-08-11T14:26:12.402Z,93705.79
2018-08-11T14:28:42.476Z,93704.08
2018-08-11T14:31:13.391Z,93698.85
2018-08-11T14:33:43.123Z,93696.09
2018-08-11T14:36:17.361Z,93691.19
2018-08-11T14:38:47.241Z,93699.15
2018-08-11T14:41:16.126Z,93703.02
2018-08-11T14:43:46.123Z,93709.25
2018-08-11T14:46:14.889Z,93713.13
2018-08-11T14:48:43.672Z,93704.16
2018-08-11T14:51:12.746Z,93698.83
2018-08-11T14:53:41.750Z,93705.50
2018-08-11T14:56:10.429Z,93715.78
2018-08-11T14:58:38.903Z,93712.34
2018-08-11T15:01:08.185Z,93711.98
2018-08-11T15:03:39.058Z,93706.50
2018-08-11T15:06:08.075Z,93703.02
2018-08-11T15:08:36.773Z,93705.56
2018-08-11T15:11:05.371Z,93715.00
2018-08-11T15:13:33.959Z,93710.95
2018-08-11T15:16:02.662Z,93710.99
2018-08-11T15:18:31.247Z,93713.59
2018-08-11T15:21:00.544Z,93716.59
2018-08-11T15:23:28.971Z,93726.02
2018-08-11T15:25:58.120Z,93723.62
2018-08-11T15:28:26.608Z,93718.71
2018-08-11T15:30:55.145Z,93719.41
2018-08-11T15:33:23.855Z,93707.75
2018-08-11T15:35:52.304Z,93715.16
2018-08-11T15:38:20.917Z,93718.28
2018-08-11T15:40:49.467Z,93715.13
2018-08-11T15:43:18.018Z,93710.83
2018-08-11T15:45:46.540Z,93712.23
2018-08-11T15:48:15.456Z,93714.60
2018-08-11T15:50:44.005Z,93722.31
2018-08-11T15:53:12.535Z,93722.48
2018-08-11T15:55:41.248Z,93721.95
2018-08-11T15:58:09.693Z,93715.75
2018-08-11T16:00:38.915Z,93710.27
2018-08-11T16:03:07.454Z,93719.38
2018-08-11T16:05:36.020Z,93706.75
2018-08-11T16:08:04.838Z,93717.11
2018-08-11T16:10:33.084Z,93712.61
2018-08-11T16:13:06.452Z,93711.96
2018-08-11T16:15:34.688Z,93722.13
2018-08-11T16:18:02.838Z,93712.95
2018-08-11T16:20:31.068Z,93713.42
2018-08-11T16:22:59.334Z,93711.66
2018-08-11T16:25:27.628Z,93715.86
2018-08-11T16:27:55.984Z,93719.95
2018-08-11T16:30:24.461Z,93714.47
2018-08-11T16:32:53.200Z,93716.48
2018-08-11T16:35:27.985Z,93713.61
2018-08-11T16:37:57.414Z,93714.23
2018-08-11T16:40:26.878Z,93711.69
2018-08-11T16:42:55.887Z,93713.61
2018-08-11T16:45:27.288Z,93715.70
2018-08-11T16:47:56.984Z,93718.56
2018-08-11T16:50:26.228Z,93718.16
2018-08-11T16:52:54.759Z,93719.41
2018-08-11T16:55:23.209Z,93721.78
2018-08-11T16:57:51.514Z,93725.62
2018-08-11T17:00:20.372Z,93721.30
2018-08-11T17:02:48.734Z,93718.98
2018-08-11T17:05:17.076Z,93723.80
2018-08-11T17:07:45.885Z,93717.52
2018-08-11T17:10:14.271Z,93712.17
2018-08-11T17:12:42.866Z,93715.09
2018-08-11T17:15:11.215Z,93720.37
2018-08-11T17:17:39.622Z,93720.87
2018-08-11T17:20:08.300Z,93724.13
2018-08-11T17:22:36.771Z,93730.67
2018-08-11T17:25:05.592Z,93721.29
2018-08-11T17:27:34.362Z,93730.50
2018-08-11T17:30:02.724Z,93735.57
2018-08-11T17:32:31.242Z,93744.22
2018-08-11T17:35:00.260Z,93738.34
2018-08-11T17:37:28.803Z,93739.59
2018-08-11T17:39:57.611Z,93745.94
2018-08-11T17:42:27.065Z,93744.00
2018-08-11T17:44:55.509Z,93751.03
2018-08-11T17:47:30.269Z,93752.35
2018-08-11T17:50:00.507Z,93755.42
2018-08-11T17:52:35.090Z,93748.16
2018-08-11T17:55:06.393Z,93755.33
2018-08-11T17:57:37.680Z,93753.38
2018-08-11T18:00:09.482Z,93771.79
2018-08-11T18:02:38.511Z,93771.48
2018-08-11T18:05:07.137Z,93773.51
2018-08-11T18:07:35.565Z,93768.64
2018-08-11T18:10:06.324Z,93773.79
2018-08-11T18:12:34.801Z,93779.70
2018-08-11T18:15:03.456Z,93781.05
2018-08-11T18:17:32.142Z,93776.86
2018-08-11T18:20:01.209Z,93785.48
2018-08-11T18:22:29.989Z,93795.81
2018-08-11T18:24:58.356Z,93795.06
2018-08-11T18:27:26.791Z,93794.94
2018-08-11T18:29:55.154Z,93795.02
2018-08-11T18:32:23.462Z,93789.17
2018-08-11T18:34:51.918Z,93789.89
2018-08-11T18:37:20.195Z,93794.23
2018-08-11T18:39:48.710Z,93803.51
2018-08-11T18:42:17.678Z,93808.57
2018-08-11T18:47:32.035Z,93816.58
2018-08-11T18:50:02.321Z,93817.03
2018-08-11T18:52:40.859Z,93820.90
2018-08-11T18:55:17.758Z,93816.70
2018-08-11T18:57:50.981Z,93829.45
2018-08-11T19:00:22.104Z,93837.83
2018-08-11T19:02:50.654Z,93840.27
2018-08-11T19:05:25.124Z,93842.30
2018-08-11T19:07:56.892Z,93849.23
2018-08-11T19:10:28.522Z,93850.80
2018-08-11T19:12:57.278Z,93867.22
2018-08-11T19:15:27.496Z,93864.66
2018-08-11T19:17:57.030Z,93861.61
2018-08-11T19:20:26.822Z,93855.13
2018-08-11T19:22:55.919Z,93853.22
2018-08-11T19:25:26.121Z,93855.55
2018-08-11T19:27:54.968Z,93851.70
2018-08-11T19:30:23.611Z,93862.25
2018-08-11T19:32:52.015Z,93855.59
2018-08-11T19:35:20.595Z,93856.45
2018-08-11T19:37:49.125Z,93858.59
2018-08-11T19:40:17.663Z,93856.59
2018-08-11T19:42:45.990Z,93858.61
2018-08-11T19:45:14.552Z,93850.37
2018-08-11T19:47:43.174Z,93848.86
2018-08-11T19:50:12.210Z,93845.17
2018-08-11T19:52:41.265Z,93852.34
2018-08-11T19:55:10.224Z,93857.16
2018-08-11T19:57:38.536Z,93854.77
2018-08-11T20:00:11.675Z,93856.31
2018-08-11T20:02:40.736Z,93860.52
2018-08-11T20:05:09.938Z,93857.55
2018-08-11T20:07:38.345Z,93855.64
2018-08-11T20:10:07.364Z,93855.55
2018-08-11T20:12:36.310Z,93852.23
2018-08-11T20:15:06.077Z,93853.32
2018-08-11T20:17:34.515Z,93858.69
2018-08-11T20:20:03.119Z,93860.22
2018-08-11T20:22:31.521Z,93862.97
2018-08-11T20:25:00.041Z,93859.30
2018-08-11T20:27:28.340Z,93854.54
2018-08-11T20:29:56.625Z,93855.47
2018-08-11T20:32:25.020Z,93858.09
2018-08-11T20:34:53.299Z,93862.75
2018-08-11T20:37:21.974Z,93857.98
2018-08-11T20:39:50.409Z,93863.47
2018-08-11T20:42:18.841Z,93868.00
2018-08-11T20:44:47.800Z,93867.89
2018-08-11T20:47:16.079Z,93874.69
2018-08-11T20:49:44.635Z,93867.08
2018-08-11T20:52:13.196Z,93866.48
2018-08-11T20:54:41.490Z,93872.07
2018-08-11T20:57:09.992Z,93870.05
2018-08-11T20:59:38.626Z,93867.89
2018-08-11T21:02:06.982Z,93874.93
2018-08-11T21:04:35.432Z,93875.87
2018-08-11T21:07:03.848Z,93870.89
2018-08-11T21:09:32.168Z,93871.94
2018-08-11T21:12:00.574Z,93874.33
2018-08-11T21:14:28.827Z,93873.73
2018-08-11T21:16:57.730Z,93868.01
2018-08-11T21:19:25.989Z,93864.93
2018-08-11T21:21:54.493Z,93872.80
2018-08-11T21:24:22.750Z,93866.24
2018-08-11T21:26:51.138Z,93864.55
2018-08-11T21:29:19.421Z,93860.63
2018-08-11T21:31:48.007Z,93858.49
2018-08-11T21:34:16.342Z,93855.27
2018-08-11T21:36:44.812Z,93855.98
2018-08-11T21:39:13.970Z,93850.63
2018-08-11T21:41:42.415Z,93851.44
2018-08-11T21:44:10.537Z,93845.48
2018-08-11T21:46:38.682Z,93853.02
2018-08-11T21:49:08.292Z,93849.42
2018-08-11T21:51:36.575Z,93860.48
2018-08-11T21:54:04.963Z,93860.97
2018-08-11T21:56:33.289Z,93862.88
2018-08-11T21:59:01.688Z,93858.69
2018-08-11T22:01:29.954Z,93857.63
2018-08-11T22:03:58.053Z,93863.21
2018-08-11T22:06:26.177Z,93863.59
2018-08-11T22:08:54.513Z,93866.08
2018-08-11T22:11:23.055Z,93862.61
2018-08-11T22:13:51.539Z,93864.77
2018-08-11T22:16:20.083Z,93858.45
2018-08-11T22:18:48.562Z,93854.62
2018-08-11T22:21:16.970Z,93855.59
2018-08-11T22:23:45.328Z,93854.88
2018-08-11T22:26:14.017Z,93854.99
2018-08-11T22:28:42.461Z,93862.72
2018-08-11T22:31:10.838Z,93859.50
2018-08-11T22:33:39.340Z,93857.70
2018-08-11T22:36:07.872Z,93856.74
2018-08-11T22:38:36.615Z,93852.42
2018-08-11T22:41:05.180Z,93855.42
2018-08-11T22:43:33.967Z,93846.23
2018-08-11T22:46:02.584Z,93844.66
2018-08-11T22:48:30.909Z,93838.98
2018-08-11T22:50:59.255Z,93839.68
2018-08-11T22:53:27.690Z,93845.52
2018-08-11T22:55:56.137Z,93844.20
2018-08-11T22:58:24.724Z,93839.20
2018-08-11T23:00:53.140Z,93842.89
2018-08-11T23:03:21.606Z,93839.41
2018-08-11T23:05:50.174Z,93837.13
2018-08-11T23:08:18.536Z,93834.23
2018-08-11T23:10:47.011Z,93832.80
2018-08-11T23:13:15.281Z,93827.12
2018-08-11T23:15:43.747Z,93831.26
2018-08-11T23:18:12.206Z,93827.92
2018-08-11T23:20:40.508Z,93827.42
2018-08-11T23:23:08.884Z,93831.34
2018-08-11T23:25:37.466Z,93828.25
2018-08-11T23:28:05.917Z,93825.88
2018-08-11T23:30:34.385Z,93823.74
2018-08-11T23:33:02.742Z,93822.44
2018-08-11T23:35:31.149Z,93823.37
2018-08-11T23:37:59.557Z,93821.13
2018-08-11T23:40:27.980Z,93825.03
2018-08-11T23:42:56.628Z,93820.59
2018-08-11T23:45:25.092Z,93821.30
2018-08-11T23:47:53.670Z,93818.20
2018-08-11T23:50:22.327Z,93819.48
2018-08-11T23:52:51.769Z,93821.16
2018-08-11T23:55:20.388Z,93815.08
2018-08-11T23:57:48.642Z,93819.00
